sensor_id;sensor_type;location;lat;lon;timestamp;noise_LAeq;noise_LA_min;noise_LA_max;noise_LA01;noise_LA95
70245;Laerm;57637;49.272;8.590;2023-04-24T00:01:29;33.18;29.66;40.07;;
70245;Laerm;57637;49.272;8.590;2023-04-24T00:03:55;33.15;29.90;48.84;;
70245;Laerm;57637;49.272;8.590;2023-04-24T00:06:25;32.61;29.73;44.92;;
70245;Laerm;57637;49.272;8.590;2023-04-24T00:08:58;32.21;29.51;51.44;;
70245;Laerm;57637;49.272;8.590;2023-04-24T00:11:23;32.78;30.22;38.54;;
70245;Laerm;57637;49.272;8.590;2023-04-24T00:13:49;32.33;29.28;37.83;;
70245;Laerm;57637;49.272;8.590;2023-04-24T00:16:14;32.98;30.27;37.53;;
70245;Laerm;57637;49.272;8.590;2023-04-24T00:18:40;33.00;30.52;37.97;;
70245;Laerm;57637;49.272;8.590;2023-04-24T00:21:06;32.92;30.19;40.91;;
70245;Laerm;57637;49.272;8.590;2023-04-24T00:23:32;32.92;29.77;44.04;;
70245;Laerm;57637;49.272;8.590;2023-04-24T00:25:57;32.19;29.51;36.58;;
70245;Laerm;57637;49.272;8.590;2023-04-24T00:28:23;32.01;29.42;40.95;;
70245;Laerm;57637;49.272;8.590;2023-04-24T00:30:48;32.16;29.54;45.67;;
70245;Laerm;57637;49.272;8.590;2023-04-24T00:33:13;32.12;29.52;35.59;;
70245;Laerm;57637;49.272;8.590;2023-04-24T00:35:39;32.31;30.11;36.53;;
70245;Laerm;57637;49.272;8.590;2023-04-24T00:38:05;32.19;29.40;39.86;;
70245;Laerm;57637;49.272;8.590;2023-04-24T00:40:30;32.73;29.65;41.16;;
70245;Laerm;57637;49.272;8.590;2023-04-24T00:42:56;33.14;29.90;40.05;;
70245;Laerm;57637;49.272;8.590;2023-04-24T00:45:21;33.19;29.43;42.47;;
70245;Laerm;57637;49.272;8.590;2023-04-24T00:47:48;33.68;29.89;39.42;;
70245;Laerm;57637;49.272;8.590;2023-04-24T00:50:15;34.88;30.39;45.81;;
70245;Laerm;57637;49.272;8.590;2023-04-24T00:52:40;33.77;29.71;51.04;;
70245;Laerm;57637;49.272;8.590;2023-04-24T00:55:06;35.64;31.03;43.76;;
70245;Laerm;57637;49.272;8.590;2023-04-24T00:57:32;35.87;31.64;55.39;;
70245;Laerm;57637;49.272;8.590;2023-04-24T00:59:58;35.13;30.72;40.71;;
70245;Laerm;57637;49.272;8.590;2023-04-24T01:02:23;34.78;30.37;40.73;;
70245;Laerm;57637;49.272;8.590;2023-04-24T01:04:50;33.71;29.83;42.20;;
70245;Laerm;57637;49.272;8.590;2023-04-24T01:07:19;33.79;29.44;47.20;;
70245;Laerm;57637;49.272;8.590;2023-04-24T01:09:47;34.07;30.56;43.58;;
70245;Laerm;57637;49.272;8.590;2023-04-24T01:12:14;41.03;30.46;56.89;;
70245;Laerm;57637;49.272;8.590;2023-04-24T01:14:40;37.62;31.54;50.48;;
70245;Laerm;57637;49.272;8.590;2023-04-24T01:17:05;35.09;31.47;40.29;;
70245;Laerm;57637;49.272;8.590;2023-04-24T01:19:31;33.04;30.03;38.00;;
70245;Laerm;57637;49.272;8.590;2023-04-24T01:21:58;32.90;29.49;37.76;;
70245;Laerm;57637;49.272;8.590;2023-04-24T01:24:27;32.89;29.74;37.92;;
70245;Laerm;57637;49.272;8.590;2023-04-24T01:26:53;33.72;30.13;38.59;;
70245;Laerm;57637;49.272;8.590;2023-04-24T01:29:19;33.63;30.61;38.90;;
70245;Laerm;57637;49.272;8.590;2023-04-24T01:31:44;33.93;29.84;42.84;;
70245;Laerm;57637;49.272;8.590;2023-04-24T01:34:10;32.32;29.74;38.48;;
70245;Laerm;57637;49.272;8.590;2023-04-24T01:36:36;32.56;30.08;36.42;;
70245;Laerm;57637;49.272;8.590;2023-04-24T01:39:02;33.08;29.84;41.87;;
70245;Laerm;57637;49.272;8.590;2023-04-24T01:41:29;32.39;29.30;37.06;;
70245;Laerm;57637;49.272;8.590;2023-04-24T01:43:55;33.25;30.43;37.25;;
70245;Laerm;57637;49.272;8.590;2023-04-24T01:46:22;33.11;30.28;41.59;;
70245;Laerm;57637;49.272;8.590;2023-04-24T01:48:47;33.36;30.05;45.06;;
70245;Laerm;57637;49.272;8.590;2023-04-24T01:51:13;32.61;29.78;35.96;;
70245;Laerm;57637;49.272;8.590;2023-04-24T01:53:38;32.85;30.07;40.59;;
70245;Laerm;57637;49.272;8.590;2023-04-24T01:56:04;33.00;30.25;44.02;;
70245;Laerm;57637;49.272;8.590;2023-04-24T01:58:30;33.07;29.92;37.30;;
70245;Laerm;57637;49.272;8.590;2023-04-24T02:00:56;33.40;29.82;38.22;;
70245;Laerm;57637;49.272;8.590;2023-04-24T02:03:22;33.66;29.78;38.56;;
70245;Laerm;57637;49.272;8.590;2023-04-24T02:05:47;34.51;30.74;38.85;;
70245;Laerm;57637;49.272;8.590;2023-04-24T02:08:12;35.25;31.78;39.19;;
70245;Laerm;57637;49.272;8.590;2023-04-24T02:10:38;36.22;32.06;41.14;;
70245;Laerm;57637;49.272;8.590;2023-04-24T02:13:03;35.81;32.69;40.96;;
70245;Laerm;57637;49.272;8.590;2023-04-24T02:15:29;35.11;32.10;39.60;;
70245;Laerm;57637;49.272;8.590;2023-04-24T02:17:55;33.16;30.24;37.57;;
70245;Laerm;57637;49.272;8.590;2023-04-24T02:20:20;34.84;30.74;42.30;;
70245;Laerm;57637;49.272;8.590;2023-04-24T02:22:46;34.12;31.24;41.41;;
70245;Laerm;57637;49.272;8.590;2023-04-24T02:25:11;33.47;30.48;38.57;;
70245;Laerm;57637;49.272;8.590;2023-04-24T02:27:37;35.68;32.02;44.25;;
70245;Laerm;57637;49.272;8.590;2023-04-24T02:30:02;35.39;30.77;48.21;;
70245;Laerm;57637;49.272;8.590;2023-04-24T02:32:28;35.86;31.89;42.77;;
70245;Laerm;57637;49.272;8.590;2023-04-24T02:34:53;36.17;32.64;41.74;;
70245;Laerm;57637;49.272;8.590;2023-04-24T02:37:19;37.05;31.92;42.83;;
70245;Laerm;57637;49.272;8.590;2023-04-24T02:39:44;37.38;32.81;47.40;;
70245;Laerm;57637;49.272;8.590;2023-04-24T02:42:09;38.64;32.04;50.64;;
70245;Laerm;57637;49.272;8.590;2023-04-24T02:44:35;38.14;33.23;52.23;;
70245;Laerm;57637;49.272;8.590;2023-04-24T02:47:00;37.01;32.72;46.67;;
70245;Laerm;57637;49.272;8.590;2023-04-24T02:49:25;37.26;33.72;44.76;;
70245;Laerm;57637;49.272;8.590;2023-04-24T02:51:52;36.21;32.92;41.60;;
70245;Laerm;57637;49.272;8.590;2023-04-24T02:54:17;36.78;32.48;45.51;;
70245;Laerm;57637;49.272;8.590;2023-04-24T02:56:42;38.31;32.48;49.48;;
70245;Laerm;57637;49.272;8.590;2023-04-24T02:59:08;37.55;33.70;43.55;;
70245;Laerm;57637;49.272;8.590;2023-04-24T03:01:33;39.56;33.18;56.17;;
70245;Laerm;57637;49.272;8.590;2023-04-24T03:03:59;39.19;31.68;64.04;;
70245;Laerm;57637;49.272;8.590;2023-04-24T03:06:24;41.11;34.71;64.77;;
70245;Laerm;57637;49.272;8.590;2023-04-24T03:08:49;37.83;34.43;43.47;;
70245;Laerm;57637;49.272;8.590;2023-04-24T03:11:15;42.88;33.52;53.31;;
70245;Laerm;57637;49.272;8.590;2023-04-24T03:13:40;54.57;44.00;61.50;;
70245;Laerm;57637;49.272;8.590;2023-04-24T03:16:05;56.83;45.39;62.46;;
70245;Laerm;57637;49.272;8.590;2023-04-24T03:18:31;43.61;38.36;58.11;;
70245;Laerm;57637;49.272;8.590;2023-04-24T03:20:56;41.98;36.55;62.38;;
70245;Laerm;57637;49.272;8.590;2023-04-24T03:23:21;40.53;34.91;58.43;;
70245;Laerm;57637;49.272;8.590;2023-04-24T03:25:47;40.90;36.38;51.70;;
70245;Laerm;57637;49.272;8.590;2023-04-24T03:28:13;41.48;36.33;54.11;;
70245;Laerm;57637;49.272;8.590;2023-04-24T03:30:39;41.07;36.31;58.09;;
70245;Laerm;57637;49.272;8.590;2023-04-24T03:33:04;44.62;37.57;56.68;;
70245;Laerm;57637;49.272;8.590;2023-04-24T03:35:29;43.23;37.68;56.43;;
70245;Laerm;57637;49.272;8.590;2023-04-24T03:37:55;42.46;35.79;58.36;;
70245;Laerm;57637;49.272;8.590;2023-04-24T03:40:20;45.84;35.56;64.89;;
70245;Laerm;57637;49.272;8.590;2023-04-24T03:42:46;47.52;33.97;66.62;;
70245;Laerm;57637;49.272;8.590;2023-04-24T03:45:11;41.81;35.26;65.89;;
70245;Laerm;57637;49.272;8.590;2023-04-24T03:47:36;40.71;34.71;56.76;;
70245;Laerm;57637;49.272;8.590;2023-04-24T03:50:02;39.42;33.54;61.48;;
70245;Laerm;57637;49.272;8.590;2023-04-24T03:52:27;39.28;33.82;48.88;;
70245;Laerm;57637;49.272;8.590;2023-04-24T03:54:52;41.53;33.96;51.94;;
70245;Laerm;57637;49.272;8.590;2023-04-24T03:57:18;38.14;33.69;45.40;;
70245;Laerm;57637;49.272;8.590;2023-04-24T03:59:43;40.45;32.43;59.93;;
70245;Laerm;57637;49.272;8.590;2023-04-24T04:02:09;41.08;33.21;61.25;;
70245;Laerm;57637;49.272;8.590;2023-04-24T04:04:34;53.18;33.78;68.17;;
70245;Laerm;57637;49.272;8.590;2023-04-24T04:06:59;53.69;34.71;70.34;;
70245;Laerm;57637;49.272;8.590;2023-04-24T04:09:26;50.13;35.60;71.77;;
70245;Laerm;57637;49.272;8.590;2023-04-24T04:11:52;52.44;35.39;71.86;;
70245;Laerm;57637;49.272;8.590;2023-04-24T04:14:17;51.15;34.78;71.62;;
70245;Laerm;57637;49.272;8.590;2023-04-24T04:16:43;49.49;34.37;69.47;;
70245;Laerm;57637;49.272;8.590;2023-04-24T04:19:08;46.94;35.12;69.45;;
70245;Laerm;57637;49.272;8.590;2023-04-24T04:21:33;56.71;35.78;74.95;;
70245;Laerm;57637;49.272;8.590;2023-04-24T04:24:00;55.20;36.22;76.00;;
70245;Laerm;57637;49.272;8.590;2023-04-24T04:26:26;58.26;35.51;73.56;;
70245;Laerm;57637;49.272;8.590;2023-04-24T04:28:52;52.22;35.77;71.53;;
70245;Laerm;57637;49.272;8.590;2023-04-24T04:31:19;54.76;37.59;71.73;;
70245;Laerm;57637;49.272;8.590;2023-04-24T04:33:45;56.27;35.79;75.65;;
70245;Laerm;57637;49.272;8.590;2023-04-24T04:36:10;57.04;37.04;71.37;;
70245;Laerm;57637;49.272;8.590;2023-04-24T04:38:35;56.11;35.00;73.15;;
70245;Laerm;57637;49.272;8.590;2023-04-24T04:41:02;52.07;34.93;73.47;;
70245;Laerm;57637;49.272;8.590;2023-04-24T04:43:28;50.73;35.98;72.63;;
70245;Laerm;57637;49.272;8.590;2023-04-24T04:45:53;47.70;37.49;62.63;;
70245;Laerm;57637;49.272;8.590;2023-04-24T04:48:19;46.75;36.93;61.11;;
70245;Laerm;57637;49.272;8.590;2023-04-24T04:50:45;48.62;37.48;65.20;;
70245;Laerm;57637;49.272;8.590;2023-04-24T04:53:10;51.10;37.74;68.80;;
70245;Laerm;57637;49.272;8.590;2023-04-24T04:55:36;46.51;37.22;58.06;;
70245;Laerm;57637;49.272;8.590;2023-04-24T04:58:02;47.30;37.45;59.79;;
70245;Laerm;57637;49.272;8.590;2023-04-24T05:00:27;47.33;36.70;66.74;;
70245;Laerm;57637;49.272;8.590;2023-04-24T05:02:54;47.93;37.63;62.49;;
70245;Laerm;57637;49.272;8.590;2023-04-24T05:05:19;60.68;42.09;68.38;;
70245;Laerm;57637;49.272;8.590;2023-04-24T05:07:45;52.94;39.71;65.23;;
70245;Laerm;57637;49.272;8.590;2023-04-24T05:10:10;50.45;39.03;63.50;;
70245;Laerm;57637;49.272;8.590;2023-04-24T05:12:36;54.22;37.40;75.39;;
70245;Laerm;57637;49.272;8.590;2023-04-24T05:15:02;45.77;37.41;60.57;;
70245;Laerm;57637;49.272;8.590;2023-04-24T05:17:28;50.20;37.36;71.00;;
70245;Laerm;57637;49.272;8.590;2023-04-24T05:19:53;47.38;36.87;68.07;;
70245;Laerm;57637;49.272;8.590;2023-04-24T05:22:19;47.58;36.13;68.88;;
70245;Laerm;57637;49.272;8.590;2023-04-24T05:24:46;54.88;37.54;73.60;;
70245;Laerm;57637;49.272;8.590;2023-04-24T05:27:11;54.09;35.12;73.46;;
70245;Laerm;57637;49.272;8.590;2023-04-24T05:29:36;48.74;35.34;64.52;;
70245;Laerm;57637;49.272;8.590;2023-04-24T05:32:02;50.29;35.91;67.20;;
70245;Laerm;57637;49.272;8.590;2023-04-24T05:34:27;48.74;37.00;64.30;;
70245;Laerm;57637;49.272;8.590;2023-04-24T05:36:52;48.22;35.92;64.66;;
70245;Laerm;57637;49.272;8.590;2023-04-24T05:39:18;46.74;36.09;65.00;;
70245;Laerm;57637;49.272;8.590;2023-04-24T05:41:45;52.71;36.48;74.11;;
70245;Laerm;57637;49.272;8.590;2023-04-24T05:44:10;55.58;36.95;74.38;;
70245;Laerm;57637;49.272;8.590;2023-04-24T05:46:36;49.49;37.35;69.09;;
70245;Laerm;57637;49.272;8.590;2023-04-24T05:49:01;47.37;35.02;66.48;;
70245;Laerm;57637;49.272;8.590;2023-04-24T05:51:27;49.55;35.57;72.25;;
70245;Laerm;57637;49.272;8.590;2023-04-24T05:53:55;56.17;35.17;75.77;;
70245;Laerm;57637;49.272;8.590;2023-04-24T05:56:21;55.10;34.91;80.90;;
70245;Laerm;57637;49.272;8.590;2023-04-24T05:58:46;43.52;36.01;55.62;;
70245;Laerm;57637;49.272;8.590;2023-04-24T06:01:13;44.81;37.08;64.05;;
70245;Laerm;57637;49.272;8.590;2023-04-24T06:03:41;44.27;37.43;66.03;;
70245;Laerm;57637;49.272;8.590;2023-04-24T06:06:07;42.70;35.46;59.72;;
70245;Laerm;57637;49.272;8.590;2023-04-24T06:08:34;42.82;36.13;58.36;;
70245;Laerm;57637;49.272;8.590;2023-04-24T06:10:59;41.50;34.45;56.74;;
70245;Laerm;57637;49.272;8.590;2023-04-24T06:13:25;52.46;34.15;78.85;;
70245;Laerm;57637;49.272;8.590;2023-04-24T06:15:50;51.37;34.60;72.68;;
70245;Laerm;57637;49.272;8.590;2023-04-24T06:18:16;44.82;35.41;66.27;;
70245;Laerm;57637;49.272;8.590;2023-04-24T06:20:42;41.75;36.15;55.42;;
70245;Laerm;57637;49.272;8.590;2023-04-24T06:23:07;41.71;36.85;53.41;;
70245;Laerm;57637;49.272;8.590;2023-04-24T06:25:32;41.10;35.71;55.68;;
70245;Laerm;57637;49.272;8.590;2023-04-24T06:27:58;44.46;36.14;66.10;;
70245;Laerm;57637;49.272;8.590;2023-04-24T06:30:23;47.02;35.52;63.30;;
70245;Laerm;57637;49.272;8.590;2023-04-24T06:32:49;49.47;35.03;68.20;;
70245;Laerm;57637;49.272;8.590;2023-04-24T06:35:14;44.66;35.58;65.78;;
70245;Laerm;57637;49.272;8.590;2023-04-24T06:37:41;43.86;38.31;61.44;;
70245;Laerm;57637;49.272;8.590;2023-04-24T06:40:07;44.85;38.26;61.66;;
70245;Laerm;57637;49.272;8.590;2023-04-24T06:42:33;46.44;37.58;58.37;;
70245;Laerm;57637;49.272;8.590;2023-04-24T06:45:00;46.97;36.77;61.36;;
70245;Laerm;57637;49.272;8.590;2023-04-24T06:47:25;47.53;38.73;63.10;;
70245;Laerm;57637;49.272;8.590;2023-04-24T06:49:50;48.41;37.64;67.18;;
70245;Laerm;57637;49.272;8.590;2023-04-24T06:52:17;44.97;37.76;56.35;;
70245;Laerm;57637;49.272;8.590;2023-04-24T06:54:43;45.09;36.88;61.86;;
70245;Laerm;57637;49.272;8.590;2023-04-24T06:57:08;43.62;36.70;55.79;;
70245;Laerm;57637;49.272;8.590;2023-04-24T06:59:34;45.54;37.03;56.93;;
70245;Laerm;57637;49.272;8.590;2023-04-24T07:01:59;46.75;36.16;65.99;;
70245;Laerm;57637;49.272;8.590;2023-04-24T07:04:25;44.13;35.46;61.64;;
70245;Laerm;57637;49.272;8.590;2023-04-24T07:06:50;43.26;35.72;57.17;;
70245;Laerm;57637;49.272;8.590;2023-04-24T07:09:16;40.89;33.51;60.98;;
70245;Laerm;57637;49.272;8.590;2023-04-24T07:11:44;42.33;34.52;60.92;;
70245;Laerm;57637;49.272;8.590;2023-04-24T07:14:09;42.49;34.11;71.49;;
70245;Laerm;57637;49.272;8.590;2023-04-24T07:16:35;47.34;33.86;67.77;;
70245;Laerm;57637;49.272;8.590;2023-04-24T07:19:00;52.94;42.28;70.14;;
70245;Laerm;57637;49.272;8.590;2023-04-24T07:21:26;49.07;39.51;61.67;;
70245;Laerm;57637;49.272;8.590;2023-04-24T07:23:52;49.85;39.31;63.70;;
70245;Laerm;57637;49.272;8.590;2023-04-24T07:26:17;42.91;36.16;60.50;;
70245;Laerm;57637;49.272;8.590;2023-04-24T07:28:43;41.49;35.79;55.75;;
70245;Laerm;57637;49.272;8.590;2023-04-24T07:31:08;41.48;35.96;50.57;;
70245;Laerm;57637;49.272;8.590;2023-04-24T07:33:33;41.87;36.39;55.88;;
70245;Laerm;57637;49.272;8.590;2023-04-24T07:35:59;45.44;38.42;61.55;;
70245;Laerm;57637;49.272;8.590;2023-04-24T07:38:25;43.79;36.01;58.63;;
70245;Laerm;57637;49.272;8.590;2023-04-24T07:40:51;44.28;35.76;60.18;;
70245;Laerm;57637;49.272;8.590;2023-04-24T07:43:17;42.22;36.75;52.55;;
70245;Laerm;57637;49.272;8.590;2023-04-24T07:45:43;44.13;35.68;57.60;;
70245;Laerm;57637;49.272;8.590;2023-04-24T07:48:09;43.42;35.19;61.18;;
70245;Laerm;57637;49.272;8.590;2023-04-24T07:50:35;46.33;34.87;66.40;;
70245;Laerm;57637;49.272;8.590;2023-04-24T07:53:01;44.12;34.03;55.82;;
70245;Laerm;57637;49.272;8.590;2023-04-24T07:55:27;44.27;36.13;65.23;;
70245;Laerm;57637;49.272;8.590;2023-04-24T07:57:52;41.37;34.78;55.82;;
70245;Laerm;57637;49.272;8.590;2023-04-24T08:00:18;41.40;34.16;60.31;;
70245;Laerm;57637;49.272;8.590;2023-04-24T08:02:43;45.36;35.98;60.12;;
70245;Laerm;57637;49.272;8.590;2023-04-24T08:05:09;45.02;35.33;60.17;;
70245;Laerm;57637;49.272;8.590;2023-04-24T08:07:34;47.79;35.39;69.07;;
70245;Laerm;57637;49.272;8.590;2023-04-24T08:10:01;46.40;35.65;61.87;;
70245;Laerm;57637;49.272;8.590;2023-04-24T08:12:28;52.54;36.11;83.03;;
70245;Laerm;57637;49.272;8.590;2023-04-24T08:14:53;48.54;33.65;67.14;;
70245;Laerm;57637;49.272;8.590;2023-04-24T08:17:19;47.46;35.12;73.27;;
70245;Laerm;57637;49.272;8.590;2023-04-24T08:19:44;45.25;36.68;61.19;;
70245;Laerm;57637;49.272;8.590;2023-04-24T08:22:14;48.74;40.46;65.20;;
70245;Laerm;57637;49.272;8.590;2023-04-24T08:24:40;55.95;40.62;73.22;;
70245;Laerm;57637;49.272;8.590;2023-04-24T08:27:05;43.24;35.20;57.04;;
70245;Laerm;57637;49.272;8.590;2023-04-24T08:29:30;43.47;35.10;55.31;;
70245;Laerm;57637;49.272;8.590;2023-04-24T08:31:57;40.78;35.05;50.11;;
70245;Laerm;57637;49.272;8.590;2023-04-24T08:34:22;46.01;37.18;66.50;;
70245;Laerm;57637;49.272;8.590;2023-04-24T08:36:48;48.07;38.28;61.95;;
70245;Laerm;57637;49.272;8.590;2023-04-24T08:39:14;49.07;38.73;63.45;;
70245;Laerm;57637;49.272;8.590;2023-04-24T08:41:42;43.10;37.08;53.57;;
70245;Laerm;57637;49.272;8.590;2023-04-24T08:44:11;42.55;36.11;59.42;;
70245;Laerm;57637;49.272;8.590;2023-04-24T08:46:38;43.58;35.87;70.34;;
70245;Laerm;57637;49.272;8.590;2023-04-24T08:49:04;43.75;34.26;62.89;;
70245;Laerm;57637;49.272;8.590;2023-04-24T08:51:31;47.72;35.46;70.24;;
70245;Laerm;57637;49.272;8.590;2023-04-24T08:53:56;55.00;35.61;69.49;;
70245;Laerm;57637;49.272;8.590;2023-04-24T08:56:22;48.35;34.70;75.35;;
70245;Laerm;57637;49.272;8.590;2023-04-24T08:58:50;53.00;38.90;65.77;;
70245;Laerm;57637;49.272;8.590;2023-04-24T09:01:17;40.88;34.25;59.57;;
70245;Laerm;57637;49.272;8.590;2023-04-24T09:03:43;40.11;33.79;53.23;;
70245;Laerm;57637;49.272;8.590;2023-04-24T09:06:11;43.62;36.14;61.04;;
70245;Laerm;57637;49.272;8.590;2023-04-24T09:08:37;41.12;35.57;50.25;;
70245;Laerm;57637;49.272;8.590;2023-04-24T09:11:04;39.67;34.35;55.11;;
70245;Laerm;57637;49.272;8.590;2023-04-24T09:13:30;39.17;33.76;57.90;;
70245;Laerm;57637;49.272;8.590;2023-04-24T09:15:57;42.42;34.35;64.03;;
70245;Laerm;57637;49.272;8.590;2023-04-24T09:18:22;42.17;34.52;63.67;;
70245;Laerm;57637;49.272;8.590;2023-04-24T09:21:08;42.27;35.83;61.37;;
70245;Laerm;57637;49.272;8.590;2023-04-24T09:23:33;42.76;36.11;59.38;;
70245;Laerm;57637;49.272;8.590;2023-04-24T09:26:00;40.83;34.35;58.90;;
70245;Laerm;57637;49.272;8.590;2023-04-24T09:28:35;41.43;34.17;53.24;;
70245;Laerm;57637;49.272;8.590;2023-04-24T09:31:11;40.57;35.20;52.26;;
70245;Laerm;57637;49.272;8.590;2023-04-24T09:33:37;42.91;35.89;64.73;;
70245;Laerm;57637;49.272;8.590;2023-04-24T09:36:02;42.13;34.44;61.74;;
70245;Laerm;57637;49.272;8.590;2023-04-24T09:38:33;42.93;34.36;58.04;;
70245;Laerm;57637;49.272;8.590;2023-04-24T09:41:00;39.76;34.04;52.57;;
70245;Laerm;57637;49.272;8.590;2023-04-24T09:43:27;47.29;35.16;76.14;;
70245;Laerm;57637;49.272;8.590;2023-04-24T09:45:55;43.02;34.72;61.71;;
70245;Laerm;57637;49.272;8.590;2023-04-24T09:48:30;39.69;34.22;55.76;;
70245;Laerm;57637;49.272;8.590;2023-04-24T09:50:55;39.01;33.94;55.46;;
70245;Laerm;57637;49.272;8.590;2023-04-24T09:53:25;46.84;35.32;60.88;;
70245;Laerm;57637;49.272;8.590;2023-04-24T09:55:51;39.70;33.84;53.02;;
70245;Laerm;57637;49.272;8.590;2023-04-24T09:58:19;43.42;34.36;63.82;;
70245;Laerm;57637;49.272;8.590;2023-04-24T10:00:53;43.08;34.20;62.95;;
70245;Laerm;57637;49.272;8.590;2023-04-24T10:03:18;40.67;34.67;57.59;;
70245;Laerm;57637;49.272;8.590;2023-04-24T10:05:46;46.28;34.40;65.63;;
70245;Laerm;57637;49.272;8.590;2023-04-24T10:08:12;47.99;35.00;62.02;;
70245;Laerm;57637;49.272;8.590;2023-04-24T10:10:43;46.50;35.21;59.36;;
70245;Laerm;57637;49.272;8.590;2023-04-24T10:13:11;40.47;33.81;57.51;;
70245;Laerm;57637;49.272;8.590;2023-04-24T10:15:38;46.76;34.75;72.25;;
70245;Laerm;57637;49.272;8.590;2023-04-24T10:18:08;43.46;34.30;70.24;;
70245;Laerm;57637;49.272;8.590;2023-04-24T10:20:36;47.80;34.42;70.85;;
70245;Laerm;57637;49.272;8.590;2023-04-24T10:23:02;45.89;35.01;67.19;;
70245;Laerm;57637;49.272;8.590;2023-04-24T10:25:30;48.67;34.39;72.22;;
70245;Laerm;57637;49.272;8.590;2023-04-24T10:27:57;45.07;35.69;72.23;;
70245;Laerm;57637;49.272;8.590;2023-04-24T10:30:29;43.79;38.28;60.79;;
70245;Laerm;57637;49.272;8.590;2023-04-24T10:32:55;45.38;38.60;58.35;;
70245;Laerm;57637;49.272;8.590;2023-04-24T10:35:22;44.94;37.85;55.80;;
70245;Laerm;57637;49.272;8.590;2023-04-24T10:40:25;42.49;37.29;58.28;;
70245;Laerm;57637;49.272;8.590;2023-04-24T10:42:52;44.60;37.73;59.95;;
70245;Laerm;57637;49.272;8.590;2023-04-24T10:45:21;40.83;35.25;54.38;;
70245;Laerm;57637;49.272;8.590;2023-04-24T10:48:02;40.56;35.65;53.26;;
70245;Laerm;57637;49.272;8.590;2023-04-24T10:50:51;42.32;36.10;53.97;;
70245;Laerm;57637;49.272;8.590;2023-04-24T10:53:19;41.84;35.29;57.94;;
70245;Laerm;57637;49.272;8.590;2023-04-24T10:55:50;40.42;35.91;52.55;;
70245;Laerm;57637;49.272;8.590;2023-04-24T10:58:16;41.95;35.57;55.49;;
70245;Laerm;57637;49.272;8.590;2023-04-24T11:00:43;52.63;35.90;71.55;;
70245;Laerm;57637;49.272;8.590;2023-04-24T11:03:29;44.98;34.23;62.27;;
70245;Laerm;57637;49.272;8.590;2023-04-24T11:08:32;42.31;36.62;57.29;;
70245;Laerm;57637;49.272;8.590;2023-04-24T11:11:12;44.40;35.25;58.07;;
70245;Laerm;57637;49.272;8.590;2023-04-24T11:16:36;42.61;35.82;60.19;;
70245;Laerm;57637;49.272;8.590;2023-04-24T11:26:53;40.78;35.33;58.04;;
70245;Laerm;57637;49.272;8.590;2023-04-24T11:29:19;41.67;35.62;59.43;;
70245;Laerm;57637;49.272;8.590;2023-04-24T11:31:45;43.49;37.57;65.21;;
70245;Laerm;57637;49.272;8.590;2023-04-24T11:34:17;47.58;37.71;57.04;;
70245;Laerm;57637;49.272;8.590;2023-04-24T11:36:44;57.65;42.89;80.55;;
70245;Laerm;57637;49.272;8.590;2023-04-24T11:39:12;46.41;42.25;57.48;;
70245;Laerm;57637;49.272;8.590;2023-04-24T11:41:37;44.93;36.56;59.91;;
70245;Laerm;57637;49.272;8.590;2023-04-24T11:44:07;43.02;37.08;52.87;;
70245;Laerm;57637;49.272;8.590;2023-04-24T11:46:33;42.83;36.31;56.82;;
70245;Laerm;57637;49.272;8.590;2023-04-24T11:49:03;46.09;36.97;63.91;;
70245;Laerm;57637;49.272;8.590;2023-04-24T11:51:28;45.57;35.77;76.65;;
70245;Laerm;57637;49.272;8.590;2023-04-24T11:53:55;43.13;36.74;54.90;;
70245;Laerm;57637;49.272;8.590;2023-04-24T11:56:22;44.83;37.57;66.52;;
70245;Laerm;57637;49.272;8.590;2023-04-24T11:58:47;43.50;36.22;65.79;;
70245;Laerm;57637;49.272;8.590;2023-04-24T12:01:13;43.45;37.27;57.53;;
70245;Laerm;57637;49.272;8.590;2023-04-24T12:03:39;45.07;38.32;58.70;;
70245;Laerm;57637;49.272;8.590;2023-04-24T12:06:09;43.07;36.85;56.60;;
70245;Laerm;57637;49.272;8.590;2023-04-24T12:08:35;41.86;35.49;56.58;;
70245;Laerm;57637;49.272;8.590;2023-04-24T12:11:05;45.39;37.17;64.91;;
70245;Laerm;57637;49.272;8.590;2023-04-24T12:13:33;48.85;35.88;69.37;;
70245;Laerm;57637;49.272;8.590;2023-04-24T12:15:58;45.10;36.99;60.27;;
70245;Laerm;57637;49.272;8.590;2023-04-24T12:18:24;42.46;36.56;58.05;;
70245;Laerm;57637;49.272;8.590;2023-04-24T12:20:50;45.20;36.17;65.26;;
70245;Laerm;57637;49.272;8.590;2023-04-24T12:23:16;40.49;35.73;50.32;;
70245;Laerm;57637;49.272;8.590;2023-04-24T12:25:43;39.77;35.01;48.94;;
70245;Laerm;57637;49.272;8.590;2023-04-24T12:28:12;41.95;35.87;51.84;;
70245;Laerm;57637;49.272;8.590;2023-04-24T12:30:43;44.54;35.51;67.76;;
70245;Laerm;57637;49.272;8.590;2023-04-24T12:33:17;42.68;36.33;53.52;;
70245;Laerm;57637;49.272;8.590;2023-04-24T12:35:42;46.24;36.50;70.76;;
70245;Laerm;57637;49.272;8.590;2023-04-24T12:38:09;42.73;35.92;55.10;;
70245;Laerm;57637;49.272;8.590;2023-04-24T12:40:35;47.25;40.45;59.41;;
70245;Laerm;57637;49.272;8.590;2023-04-24T12:43:01;45.67;37.17;59.74;;
70245;Laerm;57637;49.272;8.590;2023-04-24T12:45:27;40.89;35.81;56.19;;
70245;Laerm;57637;49.272;8.590;2023-04-24T12:47:53;45.39;36.67;59.60;;
70245;Laerm;57637;49.272;8.590;2023-04-24T12:50:19;43.72;36.44;57.97;;
70245;Laerm;57637;49.272;8.590;2023-04-24T12:52:45;41.82;35.42;58.19;;
70245;Laerm;57637;49.272;8.590;2023-04-24T12:55:10;39.08;35.12;49.34;;
70245;Laerm;57637;49.272;8.590;2023-04-24T12:57:38;44.84;36.35;58.10;;
70245;Laerm;57637;49.272;8.590;2023-04-24T13:00:06;41.04;35.33;58.83;;
70245;Laerm;57637;49.272;8.590;2023-04-24T13:02:33;40.35;34.69;54.51;;
70245;Laerm;57637;49.272;8.590;2023-04-24T13:04:59;41.70;34.98;66.92;;
70245;Laerm;57637;49.272;8.590;2023-04-24T13:07:25;42.22;34.34;56.71;;
70245;Laerm;57637;49.272;8.590;2023-04-24T13:09:51;44.97;38.42;56.52;;
70245;Laerm;57637;49.272;8.590;2023-04-24T13:12:17;43.03;36.32;56.00;;
70245;Laerm;57637;49.272;8.590;2023-04-24T13:14:42;42.56;35.05;65.12;;
70245;Laerm;57637;49.272;8.590;2023-04-24T13:17:08;56.02;35.87;71.96;;
70245;Laerm;57637;49.272;8.590;2023-04-24T13:19:42;41.27;36.04;52.52;;
70245;Laerm;57637;49.272;8.590;2023-04-24T13:22:09;41.35;35.55;56.84;;
70245;Laerm;57637;49.272;8.590;2023-04-24T13:24:37;42.36;36.24;62.61;;
70245;Laerm;57637;49.272;8.590;2023-04-24T13:27:03;43.57;36.47;60.55;;
70245;Laerm;57637;49.272;8.590;2023-04-24T13:29:28;44.59;35.74;76.02;;
70245;Laerm;57637;49.272;8.590;2023-04-24T13:31:54;45.36;35.71;67.11;;
70245;Laerm;57637;49.272;8.590;2023-04-24T13:34:21;45.07;33.95;69.10;;
70245;Laerm;57637;49.272;8.590;2023-04-24T13:36:46;42.19;34.58;56.17;;
70245;Laerm;57637;49.272;8.590;2023-04-24T13:39:12;42.56;35.58;60.91;;
70245;Laerm;57637;49.272;8.590;2023-04-24T13:41:38;48.37;34.64;67.62;;
70245;Laerm;57637;49.272;8.590;2023-04-24T13:44:04;44.18;34.39;67.59;;
70245;Laerm;57637;49.272;8.590;2023-04-24T13:46:30;44.43;34.94;64.65;;
70245;Laerm;57637;49.272;8.590;2023-04-24T13:48:56;46.64;36.01;65.67;;
70245;Laerm;57637;49.272;8.590;2023-04-24T13:51:22;43.31;36.08;56.38;;
70245;Laerm;57637;49.272;8.590;2023-04-24T13:53:48;41.21;34.25;53.92;;
70245;Laerm;57637;49.272;8.590;2023-04-24T13:56:13;43.92;36.33;64.07;;